SKRH/RCH METAR and TAF weather

Enter ICAO airport designator
Station Type Date Time Source
SKRH METAR 2019/08/25 19:00 UTC NOAA

SKRH 251900Z 01010KT 9999 FEW020 34/26 A2974


Station Type Date Time Source
SKRH Decoded METAR 2019/08/25 19:00 UTC NOAA

Station name not available
Aug 25, 2019 - 03:00 PM EDT / 2019.08.25 1900 UTC
Wind: from the N (010 degrees) at 12 MPH (10 KT):0
Visibility: greater than 7 mile(s):0
Sky conditions: mostly clear
Temperature: 93 F (34 C)
Heat index: 109.6 F (43.1 C):1
Dew Point: 78 F (26 C)
Relative Humidity: 63%
Pressure (altimeter): 29.74 in. Hg (1007 hPa)
ob: SKRH 251900Z 01010KT 9999 FEW020 34/26 A2974
cycle: 19

Station Type Date Time Source
SKRH TAF 2015/07/31 18:51 UTC NOAA

TAF SKRH 311700Z 3118/0118 07010KT 9999 SCT017
TEMPO 3120/0103 09015KT CAVOK
TEMPO 0109/0114 9000 BKN015 TX36/3118Z TN28/0110Z

Example: see airport list